CheckWX is a tool to help pilots better visualize weather data.  It is not intended as a substitute for an official pre-flight weather briefing.

16:57:52 UTC

CYAB TAF
Arctic Bay
Arctic Bay, Canada
TAF CYAB 181238Z 1813/1820 25005KT P6SM SCT005 SCT015 OVC060 TEMPO 1813/1816 P6SM -RA SCT005 BKN015 OVC060 FM181600 VRB03KT P6SM -RA BKN015 OVC060 TEMPO 1816/1820 6SM -RA BR BKN005 BKN015 OVC060 RMK NXT FCST WILL BE ISSUED AT 191245Z

Jun-18@
13:00 UTC

Jun-18 @ 13:00 UTC

Jun-18@
16:00 UTC

Jun-18 @ 16:00 UTC

TAF CYAB 181238Z 1813/1820 25005KT P6SM SCT005 SCT015 OVC060

Expired

Wind
  • 250° at 5 KTS
Cloud Levels
  • Scattered at 500' AGL
  • Scattered at 1,500' AGL
  • Overcast at 6,000' AGL

Jun-18@
13:00 UTC

Jun-18 @ 13:00 UTC

Jun-18@
16:00 UTC

Jun-18 @ 16:00 UTC

TEMPO 1813/1816 P6SM -RA SCT005 BKN015 OVC060

Expired

Conditions
Light Rain
Cloud Levels
  • Scattered at 500' AGL
  • Broken at 1,500' AGL
  • Overcast at 6,000' AGL

Jun-18@
16:00 UTC

Jun-18 @ 16:00 UTC

Jun-18@
20:00 UTC

Jun-18 @ 20:00 UTC

FM181600 VRB03KT P6SM -RA BKN015 OVC060

From

From Standard forecast or significant change

Wind
  • Variable at 3 KTS
Conditions
Light Rain
Cloud Levels
  • Broken at 1,500' AGL
  • Overcast at 6,000' AGL

Jun-18@
16:00 UTC

Jun-18 @ 16:00 UTC

Jun-18@
20:00 UTC

Jun-18 @ 20:00 UTC

TEMPO 1816/1820 6SM -RA BR BKN005 BKN015 OVC060 RMK NXT FCST WILL BE ISSUED AT 191245Z

Temporary

Temporary Changes expected for less than half the time period

Conditions
Light Rain, Mist
Cloud Levels
  • Broken at 500' AGL
  • Broken at 1,500' AGL
  • Overcast at 6,000' AGL